Time,TemperatureF,DewpointF,PressureIn,WindDirection,WindDirectionDegrees,WindSpeedMPH,WindSpeedGustMPH,Humidity,HourlyPrecipIn,Conditions,Clouds,dailyrainin,SolarRadiationWatts/m^2,SoftwareType,DateUTC
2013-01-20 00:02:00,53.0,23.0,-100.00,NW,313,1.0,7.0,31,0.00,,,0.00,1.000000,,2013-01-20 07:02:00,
2013-01-20 00:11:00,53.0,23.0,-100.00,NW,313,1.0,7.0,31,0.00,,,0.00,1.000000,,2013-01-20 07:11:00,
2013-01-20 00:32:00,52.0,22.0,-100.00,WNW,282,2.0,4.0,31,0.00,,,0.00,1.000000,,2013-01-20 07:32:00,
2013-01-20 00:42:00,52.0,22.0,-100.00,WNW,282,2.0,4.0,31,0.00,,,0.00,1.000000,,2013-01-20 07:42:00,
2013-01-20 00:52:00,52.0,22.0,-100.00,WNW,282,2.0,4.0,31,0.00,,,0.00,1.000000,,2013-01-20 07:52:00,
2013-01-20 01:02:00,52.0,22.0,-100.00,WNW,282,2.0,4.0,31,0.00,,,0.00,1.000000,,2013-01-20 08:02:00,
2013-01-20 01:12:00,52.0,22.0,-100.00,WNW,282,2.0,4.0,31,0.00,,,0.00,1.000000,,2013-01-20 08:12:00,
2013-01-20 01:42:00,51.0,21.0,-100.00,SW,218,1.0,2.0,31,0.00,,,0.00,1.000000,,2013-01-20 08:42:00,
2013-01-20 01:52:00,51.0,21.0,-100.00,SW,218,1.0,2.0,31,0.00,,,0.00,1.000000,,2013-01-20 08:52:00,
2013-01-20 02:02:00,51.0,21.0,-100.00,SW,218,1.0,2.0,31,0.00,,,0.00,1.000000,,2013-01-20 09:02:00,
2013-01-20 02:12:00,51.0,21.0,-100.00,SW,218,1.0,2.0,31,0.00,,,0.00,1.000000,,2013-01-20 09:12:00,
2013-01-20 02:33:00,54.0,18.0,-100.00,WSW,254,3.0,6.0,24,0.00,,,0.00,1.000000,,2013-01-20 09:33:00,
2013-01-20 02:42:00,54.0,18.0,-100.00,WSW,254,3.0,6.0,24,0.00,,,0.00,1.000000,,2013-01-20 09:42:00,
2013-01-20 02:52:00,54.0,18.0,-100.00,WSW,254,3.0,6.0,24,0.00,,,0.00,1.000000,,2013-01-20 09:52:00,
2013-01-20 03:02:00,54.0,18.0,-100.00,WSW,254,3.0,6.0,24,0.00,,,0.00,1.000000,,2013-01-20 10:02:00,
2013-01-20 03:11:00,54.0,18.0,-100.00,WSW,254,3.0,6.0,24,0.00,,,0.00,1.000000,,2013-01-20 10:11:00,
2013-01-20 03:33:00,57.0,15.0,-100.00,North,357,7.0,8.0,19,0.00,,,0.00,1.000000,,2013-01-20 10:33:00,
2013-01-20 03:42:00,57.0,15.0,-100.00,North,357,7.0,8.0,19,0.00,,,0.00,1.000000,,2013-01-20 10:42:00,
2013-01-20 03:52:00,57.0,15.0,-100.00,North,357,7.0,8.0,19,0.00,,,0.00,1.000000,,2013-01-20 10:52:00,
2013-01-20 04:02:00,57.0,15.0,-100.00,North,357,7.0,8.0,19,0.00,,,0.00,1.000000,,2013-01-20 11:02:00,
2013-01-20 04:12:00,57.0,15.0,-100.00,North,357,7.0,8.0,19,0.00,,,0.00,1.000000,,2013-01-20 11:12:00,
2013-01-20 04:33:00,57.0,15.0,-100.00,North,357,8.0,15.0,19,0.00,,,0.00,1.000000,,2013-01-20 11:33:00,
2013-01-20 04:43:00,57.0,15.0,-100.00,North,357,8.0,15.0,19,0.00,,,0.00,1.000000,,2013-01-20 11:43:00,
2013-01-20 04:53:00,57.0,15.0,-100.00,North,357,8.0,15.0,19,0.00,,,0.00,1.000000,,2013-01-20 11:53:00,
2013-01-20 05:02:00,57.0,15.0,-100.00,North,357,8.0,15.0,19,0.00,,,0.00,1.000000,,2013-01-20 12:02:00,
2013-01-20 05:12:00,57.0,15.0,-100.00,North,357,8.0,15.0,19,0.00,,,0.00,1.000000,,2013-01-20 12:12:00,
2013-01-20 05:33:00,58.0,15.0,-100.00,North,1,8.0,13.0,18,0.00,,,0.00,1.000000,,2013-01-20 12:33:00,
2013-01-20 05:43:00,58.0,15.0,-100.00,North,1,8.0,13.0,18,0.00,,,0.00,1.000000,,2013-01-20 12:43:00,
2013-01-20 05:53:00,58.0,15.0,-100.00,North,1,8.0,13.0,18,0.00,,,0.00,1.000000,,2013-01-20 12:53:00,
2013-01-20 06:02:00,58.0,15.0,-100.00,North,1,8.0,13.0,18,0.00,,,0.00,1.000000,,2013-01-20 13:02:00,
2013-01-20 06:12:00,58.0,15.0,-100.00,North,1,8.0,13.0,18,0.00,,,0.00,1.000000,,2013-01-20 13:12:00,
2013-01-20 06:33:00,56.0,14.0,-100.00,North,357,8.0,14.0,19,0.00,,,0.00,1.000000,,2013-01-20 13:33:00,
2013-01-20 06:43:00,56.0,14.0,-100.00,North,357,8.0,14.0,19,0.00,,,0.00,1.000000,,2013-01-20 13:43:00,
2013-01-20 06:53:00,56.0,14.0,-100.00,North,357,8.0,14.0,19,0.00,,,0.00,1.000000,,2013-01-20 13:53:00,
2013-01-20 07:02:00,56.0,14.0,-100.00,North,357,8.0,14.0,19,0.00,,,0.00,1.000000,,2013-01-20 14:02:00,
2013-01-20 07:12:00,56.0,14.0,-100.00,North,357,8.0,14.0,19,0.00,,,0.00,1.000000,,2013-01-20 14:12:00,
2013-01-20 07:43:00,54.0,14.0,-100.00,NNW,348,5.0,13.0,20,0.00,,,0.00,1.000000,,2013-01-20 14:43:00,
2013-01-20 07:53:00,54.0,14.0,-100.00,NNW,348,5.0,13.0,20,0.00,,,0.00,1.000000,,2013-01-20 14:53:00,
2013-01-20 08:03:00,54.0,14.0,-100.00,NNW,348,5.0,13.0,20,0.00,,,0.00,1.000000,,2013-01-20 15:03:00,
2013-01-20 08:12:00,54.0,14.0,-100.00,NNW,348,5.0,13.0,20,0.00,,,0.00,1.000000,,2013-01-20 15:12:00,
2013-01-20 08:43:00,56.0,14.0,-100.00,NNE,12,8.0,11.0,19,0.00,,,-99.99,21.000000,,2013-01-20 15:43:00,
2013-01-20 08:53:00,56.0,14.0,-100.00,NNE,12,8.0,11.0,19,0.00,,,-99.99,21.000000,,2013-01-20 15:53:00,
2013-01-20 09:02:00,56.0,14.0,-100.00,NNE,12,8.0,11.0,19,0.00,,,-99.99,21.000000,,2013-01-20 16:02:00,
2013-01-20 09:12:00,56.0,14.0,-100.00,NNE,12,8.0,11.0,19,0.00,,,-99.99,21.000000,,2013-01-20 16:12:00,
2013-01-20 09:33:00,60.0,15.0,-100.00,North,10,9.0,15.0,17,0.00,,,0.00,186.000000,,2013-01-20 16:33:00,
2013-01-20 09:43:00,60.0,15.0,-100.00,North,10,9.0,15.0,17,0.00,,,0.00,186.000000,,2013-01-20 16:43:00,
2013-01-20 09:53:00,60.0,15.0,-100.00,North,10,9.0,15.0,17,0.00,,,0.00,186.000000,,2013-01-20 16:53:00,
2013-01-20 10:02:00,60.0,15.0,-100.00,North,10,9.0,15.0,17,0.00,,,0.00,186.000000,,2013-01-20 17:02:00,
2013-01-20 10:12:00,60.0,15.0,-100.00,North,10,9.0,15.0,17,0.00,,,0.00,186.000000,,2013-01-20 17:12:00,
2013-01-20 10:33:00,64.0,17.0,-100.00,North,353,9.0,19.0,16,0.00,,,0.00,375.000000,,2013-01-20 17:33:00,
2013-01-20 10:43:00,64.0,17.0,-100.00,North,353,9.0,19.0,16,0.00,,,0.00,375.000000,,2013-01-20 17:43:00,
2013-01-20 10:53:00,64.0,17.0,-100.00,North,353,9.0,19.0,16,0.00,,,0.00,375.000000,,2013-01-20 17:53:00,
2013-01-20 11:02:00,64.0,17.0,-100.00,North,353,9.0,19.0,16,0.00,,,0.00,375.000000,,2013-01-20 18:02:00,
2013-01-20 11:12:00,64.0,17.0,-100.00,North,353,9.0,19.0,16,0.00,,,0.00,375.000000,,2013-01-20 18:12:00,
2013-01-20 11:43:00,67.0,16.0,-100.00,North,2,13.0,19.0,14,0.00,,,0.00,544.000000,,2013-01-20 18:43:00,
2013-01-20 11:53:00,67.0,16.0,-100.00,North,2,13.0,19.0,14,0.00,,,0.00,544.000000,,2013-01-20 18:53:00,
2013-01-20 12:02:00,67.0,16.0,-100.00,North,2,13.0,19.0,14,0.00,,,0.00,544.000000,,2013-01-20 19:02:00,
2013-01-20 12:12:00,67.0,16.0,-100.00,North,2,13.0,19.0,14,0.00,,,0.00,544.000000,,2013-01-20 19:12:00,
2013-01-20 12:33:00,69.0,16.0,-100.00,North,5,12.0,20.0,13,0.00,,,0.00,593.000000,,2013-01-20 19:33:00,
2013-01-20 12:43:00,69.0,16.0,-100.00,North,5,12.0,20.0,13,0.00,,,0.00,593.000000,,2013-01-20 19:43:00,
2013-01-20 12:53:00,69.0,16.0,-100.00,North,5,12.0,20.0,13,0.00,,,0.00,593.000000,,2013-01-20 19:53:00,
2013-01-20 13:02:00,69.0,16.0,-100.00,North,5,12.0,20.0,13,0.00,,,0.00,593.000000,,2013-01-20 20:02:00,
2013-01-20 13:12:00,69.0,16.0,-100.00,North,5,12.0,20.0,13,0.00,,,0.00,593.000000,,2013-01-20 20:12:00,
2013-01-20 13:42:00,69.0,14.0,-100.00,NNE,15,11.0,18.0,12,0.00,,,0.00,454.000000,,2013-01-20 20:42:00,
2013-01-20 13:53:00,69.0,14.0,-100.00,NNE,15,11.0,18.0,12,0.00,,,0.00,454.000000,,2013-01-20 20:53:00,
2013-01-20 14:03:00,69.0,14.0,-100.00,NNE,15,11.0,18.0,12,0.00,,,0.00,454.000000,,2013-01-20 21:03:00,
2013-01-20 14:12:00,69.0,14.0,-100.00,NNE,15,11.0,18.0,12,0.00,,,0.00,454.000000,,2013-01-20 21:12:00,
2013-01-20 14:33:00,71.0,18.0,-100.00,North,355,10.0,17.0,13,0.00,,,0.00,494.000000,,2013-01-20 21:33:00,
2013-01-20 14:43:00,71.0,18.0,-100.00,North,355,10.0,17.0,13,0.00,,,0.00,494.000000,,2013-01-20 21:43:00,
2013-01-20 14:53:00,71.0,18.0,-100.00,North,355,10.0,17.0,13,0.00,,,0.00,494.000000,,2013-01-20 21:53:00,
2013-01-20 15:03:00,71.0,18.0,-100.00,North,355,10.0,17.0,13,0.00,,,0.00,494.000000,,2013-01-20 22:03:00,
2013-01-20 15:12:00,71.0,18.0,-100.00,North,355,10.0,17.0,13,0.00,,,0.00,494.000000,,2013-01-20 22:12:00,
2013-01-20 15:33:00,73.0,17.0,-100.00,North,5,10.0,17.0,12,0.00,,,0.00,616.000000,,2013-01-20 22:33:00,
2013-01-20 15:43:00,73.0,17.0,-100.00,North,5,10.0,17.0,12,0.00,,,0.00,616.000000,,2013-01-20 22:43:00,
2013-01-20 15:53:00,73.0,17.0,-100.00,North,5,10.0,17.0,12,0.00,,,0.00,616.000000,,2013-01-20 22:53:00,
2013-01-20 16:03:00,73.0,17.0,-100.00,North,5,10.0,17.0,12,0.00,,,0.00,616.000000,,2013-01-20 23:03:00,
2013-01-20 16:12:00,73.0,17.0,-100.00,North,5,10.0,17.0,12,0.00,,,0.00,616.000000,,2013-01-20 23:12:00,
2013-01-20 16:33:00,73.0,17.0,-100.00,North,3,10.0,17.0,12,0.00,,,0.00,442.000000,,2013-01-20 23:33:00,
2013-01-20 16:43:00,73.0,17.0,-100.00,North,3,10.0,17.0,12,0.00,,,0.00,442.000000,,2013-01-20 23:43:00,
2013-01-20 16:53:00,73.0,17.0,-100.00,North,3,10.0,17.0,12,0.00,,,0.00,442.000000,,2013-01-20 23:53:00,
2013-01-20 17:02:00,73.0,17.0,-100.00,North,3,10.0,17.0,12,0.00,,,0.00,442.000000,,2013-01-21 00:02:00,
2013-01-20 17:12:00,73.0,17.0,-100.00,North,3,10.0,17.0,12,0.00,,,0.00,442.000000,,2013-01-21 00:12:00,
2013-01-20 17:33:00,71.0,18.0,-100.00,North,0,10.0,17.0,13,0.00,,,0.00,206.000000,,2013-01-21 00:33:00,
2013-01-20 17:43:00,71.0,18.0,-100.00,North,0,10.0,17.0,13,0.00,,,0.00,206.000000,,2013-01-21 00:43:00,
2013-01-20 17:53:00,71.0,18.0,-100.00,North,0,10.0,17.0,13,0.00,,,0.00,206.000000,,2013-01-21 00:53:00,
2013-01-20 18:02:00,71.0,18.0,-100.00,North,0,10.0,17.0,13,0.00,,,0.00,206.000000,,2013-01-21 01:02:00,
2013-01-20 18:12:00,71.0,18.0,-100.00,North,0,10.0,17.0,13,0.00,,,0.00,206.000000,,2013-01-21 01:12:00,
2013-01-20 18:33:00,67.0,18.0,-100.00,North,350,5.0,14.0,15,0.00,,,0.00,44.000000,,2013-01-21 01:33:00,
2013-01-20 18:43:00,67.0,18.0,-100.00,North,350,5.0,14.0,15,0.00,,,0.00,44.000000,,2013-01-21 01:43:00,
2013-01-20 18:53:00,67.0,18.0,-100.00,North,350,5.0,14.0,15,0.00,,,0.00,44.000000,,2013-01-21 01:53:00,
2013-01-20 19:02:00,67.0,18.0,-100.00,North,350,5.0,14.0,15,0.00,,,0.00,44.000000,,2013-01-21 02:02:00,
2013-01-20 19:12:00,67.0,18.0,-100.00,North,350,5.0,14.0,15,0.00,,,0.00,44.000000,,2013-01-21 02:12:00,
2013-01-20 19:33:00,66.0,19.0,-100.00,NNW,342,6.0,8.0,16,0.00,,,0.00,1.000000,,2013-01-21 02:33:00,
2013-01-20 19:43:00,66.0,19.0,-100.00,NNW,342,6.0,8.0,16,0.00,,,0.00,1.000000,,2013-01-21 02:43:00,
2013-01-20 19:53:00,66.0,19.0,-100.00,NNW,342,6.0,8.0,16,0.00,,,0.00,1.000000,,2013-01-21 02:53:00,
2013-01-20 20:02:00,66.0,19.0,-100.00,NNW,342,6.0,8.0,16,0.00,,,0.00,1.000000,,2013-01-21 03:02:00,
2013-01-20 20:12:00,66.0,19.0,-100.00,NNW,342,6.0,8.0,16,0.00,,,0.00,1.000000,,2013-01-21 03:12:00,
2013-01-20 20:33:00,64.0,17.0,-100.00,NNW,329,5.0,10.0,16,0.00,,,0.00,1.000000,,2013-01-21 03:33:00,
2013-01-20 20:43:00,64.0,17.0,-100.00,NNW,329,5.0,10.0,16,0.00,,,0.00,1.000000,,2013-01-21 03:43:00,
2013-01-20 20:53:00,64.0,17.0,-100.00,NNW,329,5.0,10.0,16,0.00,,,0.00,1.000000,,2013-01-21 03:53:00,
2013-01-20 21:02:00,64.0,17.0,-100.00,NNW,329,5.0,10.0,16,0.00,,,0.00,1.000000,,2013-01-21 04:02:00,
2013-01-20 21:12:00,64.0,17.0,-100.00,NNW,329,5.0,10.0,16,0.00,,,0.00,1.000000,,2013-01-21 04:12:00,
2013-01-20 21:33:00,60.0,19.0,-100.00,NW,320,5.0,7.0,20,0.00,,,0.00,1.000000,,2013-01-21 04:33:00,
2013-01-20 21:43:00,60.0,19.0,-100.00,NW,320,5.0,7.0,20,0.00,,,0.00,1.000000,,2013-01-21 04:43:00,
2013-01-20 21:53:00,60.0,19.0,-100.00,NW,320,5.0,7.0,20,0.00,,,0.00,1.000000,,2013-01-21 04:53:00,
2013-01-20 22:03:00,60.0,19.0,-100.00,NW,320,5.0,7.0,20,0.00,,,0.00,1.000000,,2013-01-21 05:03:00,
2013-01-20 22:12:00,60.0,19.0,-100.00,NW,320,5.0,7.0,20,0.00,,,0.00,1.000000,,2013-01-21 05:12:00,
2013-01-20 22:42:00,56.0,22.0,-100.00,West,264,2.0,4.0,26,0.00,,,0.00,1.000000,,2013-01-21 05:42:00,
2013-01-20 22:53:00,56.0,22.0,-100.00,West,264,2.0,4.0,26,0.00,,,0.00,1.000000,,2013-01-21 05:53:00,
2013-01-20 23:02:00,56.0,22.0,-100.00,West,264,2.0,4.0,26,0.00,,,0.00,1.000000,,2013-01-21 06:02:00,
2013-01-20 23:12:00,56.0,22.0,-100.00,West,264,2.0,4.0,26,0.00,,,0.00,1.000000,,2013-01-21 06:12:00,
2013-01-20 23:33:00,55.0,18.0,-100.00,NW,307,1.0,3.0,23,0.00,,,0.00,1.000000,,2013-01-21 06:33:00,
2013-01-20 23:43:00,55.0,18.0,-100.00,NW,307,1.0,3.0,23,0.00,,,0.00,1.000000,,2013-01-21 06:43:00,
2013-01-20 23:53:00,55.0,18.0,-100.00,NW,307,1.0,3.0,23,0.00,,,0.00,1.000000,,2013-01-21 06:53:00,